Bushwood, MD

2:35 AM EDT on June 03, 2015 (GMT -0400)
Notley Hall Farm | | Change Station
CLOSE
Current Station
Personal Weather Station
Location: Chaptico, MD
Elevation: 20 ft
Nearby Weather Stations

Elev 20 ft 38.31 °N, 76.82 °W | Updated 8 seconds ago

Overcast
Overcast
57.7 °F
Feels Like 57.7 °F
N
0.0
Wind Variable Wind from North
Gusts 0.0 mph

Today
High -- | Low -- °F
--% Chance of Precip.
Yesterday
High -- | Low -- °F
Precip. -- in
5:44 AM 8:26 PM
Full, 100% visible
Pressure 30.12 in
Visibility 4.0 miles
Clouds Overcast 500 ft
Dew Point 57 °F
Humidity 98%
Rainfall 0.00 in
Snow Depth Not available.
UV 0 out of 12
Pollen .60 out of 12
Air Quality Not available.
Flu Activity Sporadic
METAR K2W6 030627Z AUTO 00000KT 4SM OVC005 14/13 A3012 RMK AO1

More Conditions Fewer Conditions

Pressure 30.12 in
Visibility 4.0 miles
Clouds Overcast 500 ft
Dew Point 57 °F
Humidity 98%
Rainfall 0.00 in
Snow Depth Not available.
UV 0 out of 12
Pollen .60 out of 12
Air Quality Not available.
Flu Activity Sporadic
METAR K2W6 030627Z AUTO 00000KT 4SM OVC005 14/13 A3012 RMK AO1

More Conditions Fewer Conditions

10-Day Weather Forecast

×

Almanac

Astronomy

Jun. 03, 2015 Rise Set
Actual Time
Civil Twilight
Nautical Twilight
Astronomical Twilight
Moon
Length of Visible Light
Length of Day
Tomorrow will be .
, % of the Moon is Illuminated

Today's Extremes

State Highs State Lows

Community

WunderPhotos

Upload Photos

1,826,185 photos uploaded!

WunderBlogs® & News

Nearby

Air Quality

  Air Quality AQ Index Pollutant
Not available.

Snow Depth

Station Depth Elevation

Earthquake Activity

City Distance Mag. Time & Date
Minimum magnitude displayed is 2.5.

Coastal Water Temperatures

Place Temperature

Stations

Nearby Weather Stations

Station Location Temp. Windchill Dew Point Humidity Wind Precip. Elev Updated Type